Time;durP1;ratioP1;P1;durP2;ratioP2;P2;SDS_P1;SDS_P2;PMS_P1;PMS_P2;Temp;Humidity;BMP_temperature;BMP_pressure;BME280_temperature;BME280_humidity;BME280_pressure;Samples;Min_cycle;Max_cycle;Signal;HPM_P1;HPM_P2
2022/01/03 00:00:19;;;;;;;9.50;2.88;;;9.20;99.90;;;;;;4847010;29;20044;-89
2022/01/03 00:02:45;;;;;;;10.68;2.38;;;9.30;99.90;;;;;;4839879;29;20049;-88
2022/01/03 00:05:12;;;;;;;17.35;2.42;;;9.30;99.90;;;;;;4846334;29;20078;-89
2022/01/03 00:07:40;;;;;;;14.05;2.95;;;9.30;99.90;;;;;;4843886;29;20081;-88
2022/01/03 00:10:08;;;;;;;13.15;2.60;;;9.30;99.90;;;;;;4836323;29;20041;-88
2022/01/03 00:12:34;;;;;;;16.98;2.75;;;9.30;99.90;;;;;;4840376;29;20635;-89
2022/01/03 00:15:00;;;;;;;18.23;3.17;;;9.30;99.90;;;;;;4839645;29;20041;-87
2022/01/03 00:17:26;;;;;;;20.00;3.58;;;9.40;99.90;;;;;;4839501;29;20580;-88
2022/01/03 00:19:51;;;;;;;20.58;3.30;;;9.40;99.90;;;;;;4841234;29;20041;-88
2022/01/03 00:22:22;;;;;;;16.95;2.67;;;9.40;99.90;;;;;;4842494;29;20098;-87
2022/01/03 00:25:19;;;;;;;18.58;3.10;;;9.40;99.90;;;;;;4839721;29;20081;-88
2022/01/03 00:28:04;;;;;;;15.57;2.75;;;9.50;99.90;;;;;;4824088;29;20126;-88
2022/01/03 00:30:34;;;;;;;11.07;3.13;;;9.50;99.90;;;;;;4838498;29;20056;-88
2022/01/03 00:33:01;;;;;;;17.42;3.50;;;9.50;99.90;;;;;;4844668;29;20045;-89
2022/01/03 00:35:28;;;;;;;16.65;3.45;;;9.60;99.90;;;;;;4842600;29;20055;-87
2022/01/03 00:37:56;;;;;;;15.77;3.38;;;9.60;99.90;;;;;;4842802;29;20429;-89
2022/01/03 00:40:22;;;;;;;28.05;3.88;;;9.60;99.90;;;;;;4842491;29;20037;-88
2022/01/03 00:42:49;;;;;;;19.60;3.85;;;9.60;99.90;;;;;;4842430;29;20126;-87
2022/01/03 00:45:14;;;;;;;25.10;4.75;;;9.70;99.90;;;;;;4841914;29;20050;-88
2022/01/03 00:47:40;;;;;;;25.83;3.60;;;9.70;99.90;;;;;;4858063;29;20057;-88
2022/01/03 00:50:15;;;;;;;26.65;4.47;;;9.70;99.90;;;;;;4842123;29;20042;-88
2022/01/03 00:52:42;;;;;;;28.13;4.40;;;9.70;99.90;;;;;;4842230;29;20114;-87
2022/01/03 00:55:08;;;;;;;22.65;4.13;;;9.60;99.90;;;;;;4841829;29;20497;-88
2022/01/03 00:57:44;;;;;;;33.55;4.20;;;9.60;99.90;;;;;;4841671;29;20041;-88
2022/01/03 01:00:10;;;;;;;24.98;4.18;;;9.70;99.90;;;;;;4842854;29;20767;-88
2022/01/03 01:02:38;;;;;;;24.02;3.65;;;9.80;99.90;;;;;;4842414;29;20049;-88
2022/01/03 01:05:07;;;;;;;23.00;4.35;;;9.80;99.90;;;;;;4842324;29;20042;-89
2022/01/03 01:07:33;;;;;;;28.92;4.78;;;9.80;99.90;;;;;;4842398;29;20042;-88
2022/01/03 01:10:01;;;;;;;29.52;3.58;;;9.70;99.90;;;;;;4842123;29;20093;-88
2022/01/03 01:12:30;;;;;;;27.50;3.83;;;9.70;99.90;;;;;;4844876;29;20045;-88
2022/01/03 01:14:56;;;;;;;30.05;4.53;;;9.70;99.90;;;;;;4841738;29;20124;-87
2022/01/03 01:17:25;;;;;;;27.10;4.20;;;9.70;99.90;;;;;;4826833;29;20148;-88
2022/01/03 01:19:51;;;;;;;27.48;3.83;;;9.70;99.90;;;;;;4841622;29;20038;-89
2022/01/03 01:22:19;;;;;;;28.30;4.30;;;9.70;99.90;;;;;;4841968;29;20128;-88
2022/01/03 01:25:11;;;;;;;23.70;4.07;;;9.70;99.90;;;;;;4842008;29;20046;-89
2022/01/03 01:27:49;;;;;;;21.23;3.63;;;9.70;99.90;;;;;;4841833;29;20049;-87
2022/01/03 01:30:17;;;;;;;24.83;4.00;;;9.70;99.90;;;;;;4841590;29;20133;-88
2022/01/03 01:32:48;;;;;;;30.77;3.60;;;9.70;99.90;;;;;;4841773;29;20177;-88
2022/01/03 01:35:14;;;;;;;28.33;4.22;;;9.60;99.90;;;;;;4841579;29;20093;-88
2022/01/03 01:37:42;;;;;;;29.55;3.97;;;9.60;99.90;;;;;;4842854;29;20045;-89
2022/01/03 01:40:10;;;;;;;30.35;4.57;;;9.70;99.90;;;;;;4837268;29;20459;-87
2022/01/03 01:42:37;;;;;;;27.23;3.85;;;9.60;99.90;;;;;;4841307;29;20125;-88
2022/01/03 01:45:08;;;;;;;26.52;4.18;;;9.60;99.90;;;;;;4840959;29;20052;-88
2022/01/03 01:47:39;;;;;;;25.38;3.67;;;9.80;99.90;;;;;;4844904;29;20053;-88
2022/01/03 01:50:07;;;;;;;22.77;3.92;;;9.70;99.90;;;;;;4834028;29;20045;-88
2022/01/03 01:52:36;;;;;;;34.78;4.93;;;9.80;99.90;;;;;;4841738;29;20045;-88
2022/01/03 01:55:11;;;;;;;29.23;5.03;;;9.80;99.90;;;;;;4841101;29;20061;-88
2022/01/03 01:57:55;;;;;;;25.80;4.90;;;9.80;99.90;;;;;;4841586;29;20067;-88
2022/01/03 02:00:21;;;;;;;17.38;3.38;;;9.80;99.90;;;;;;4841246;29;20507;-89
2022/01/03 02:03:00;;;;;;;26.77;3.63;;;9.80;99.90;;;;;;4841166;29;20057;-89
2022/01/03 02:05:41;;;;;;;28.25;4.28;;;9.70;99.90;;;;;;4841123;29;20516;-89
2022/01/03 02:08:14;;;;;;;24.05;3.85;;;9.60;99.90;;;;;;4841548;29;20053;-88
2022/01/03 02:10:43;;;;;;;23.65;3.83;;;9.60;99.90;;;;;;4841128;29;20389;-89
2022/01/03 02:13:11;;;;;;;26.95;3.97;;;9.60;99.90;;;;;;4841739;29;20045;-88
2022/01/03 02:15:37;;;;;;;22.83;3.53;;;9.60;99.90;;;;;;4841103;29;20109;-89
2022/01/03 02:18:04;;;;;;;25.45;3.60;;;9.60;99.90;;;;;;4841545;29;20049;-89
2022/01/03 02:20:32;;;;;;;24.65;3.60;;;9.60;99.90;;;;;;4841073;29;20124;-89
2022/01/03 02:22:58;;;;;;;29.77;3.55;;;9.60;99.90;;;;;;4841118;29;20108;-89
2022/01/03 02:25:25;;;;;;;27.23;4.30;;;9.60;99.90;;;;;;4840072;29;20044;-89
2022/01/03 02:27:51;;;;;;;20.83;3.65;;;9.60;99.90;;;;;;4841161;29;20449;-89
2022/01/03 02:30:20;;;;;;;32.10;4.03;;;9.60;99.90;;;;;;4841096;29;20097;-89
2022/01/03 02:32:46;;;;;;;27.50;4.60;;;9.50;99.90;;;;;;4840914;29;20083;-88
2022/01/03 02:35:11;;;;;;;24.63;3.80;;;9.50;99.90;;;;;;4840408;29;20606;-89
2022/01/03 02:37:38;;;;;;;23.98;4.10;;;9.50;99.90;;;;;;4840751;29;20049;-88
2022/01/03 02:40:07;;;;;;;29.88;3.88;;;9.40;99.90;;;;;;4840323;29;20052;-89
2022/01/03 02:42:32;;;;;;;31.83;4.93;;;9.30;99.90;;;;;;4840659;29;20057;-89
2022/01/03 02:45:08;;;;;;;26.40;4.45;;;9.30;99.90;;;;;;4833190;29;20093;-89
2022/01/03 02:47:34;;;;;;;34.53;4.55;;;9.20;99.90;;;;;;4840684;29;20132;-88
2022/01/03 02:50:00;;;;;;;37.38;4.78;;;9.20;99.90;;;;;;4840422;29;20046;-88
2022/01/03 02:52:26;;;;;;;25.50;4.13;;;9.20;99.90;;;;;;4839773;29;20053;-88
2022/01/03 02:54:52;;;;;;;27.25;3.90;;;9.20;99.90;;;;;;4840226;29;20042;-88
2022/01/03 02:57:25;;;;;;;27.67;3.75;;;9.20;99.90;;;;;;4839932;29;20097;-88
2022/01/03 02:59:55;;;;;;;33.90;4.13;;;9.30;99.90;;;;;;4840916;29;20409;-88
2022/01/03 03:02:23;;;;;;;29.65;4.85;;;9.20;99.90;;;;;;4840428;29;20097;-88
2022/01/03 03:04:57;;;;;;;30.35;4.10;;;9.20;99.90;;;;;;4840392;29;20041;-88
2022/01/03 03:07:25;;;;;;;29.80;4.28;;;9.20;99.90;;;;;;4840234;29;20090;-88
2022/01/03 03:09:51;;;;;;;23.85;4.22;;;9.20;99.90;;;;;;4827638;29;20050;-88
2022/01/03 03:12:17;;;;;;;36.45;4.82;;;9.20;99.90;;;;;;4840315;29;20499;-88
2022/01/03 03:14:43;;;;;;;25.95;3.83;;;9.10;99.90;;;;;;4840817;29;20065;-89
2022/01/03 03:17:09;;;;;;;25.67;4.00;;;9.10;99.90;;;;;;4839993;29;20527;-88
2022/01/03 03:19:55;;;;;;;33.58;4.50;;;9.20;99.90;;;;;;4833453;29;20051;-88
2022/01/03 03:22:22;;;;;;;27.65;4.65;;;9.10;99.90;;;;;;4840622;29;20059;-88
2022/01/03 03:24:48;;;;;;;29.33;4.40;;;9.10;99.90;;;;;;4840180;29;20090;-89
2022/01/03 03:27:13;;;;;;;39.40;4.70;;;9.10;99.90;;;;;;4840103;29;20041;-88
2022/01/03 03:29:50;;;;;;;28.60;4.15;;;9.10;99.90;;;;;;4840404;29;20056;-88
2022/01/03 03:32:18;;;;;;;31.90;3.78;;;9.10;99.90;;;;;;4839815;29;20070;-88
2022/01/03 03:34:45;;;;;;;29.50;4.10;;;9.20;99.90;;;;;;4840383;29;20050;-88
2022/01/03 03:37:11;;;;;;;27.38;4.28;;;9.20;99.90;;;;;;4839615;29;20050;-88
2022/01/03 03:39:39;;;;;;;32.47;4.07;;;9.20;99.90;;;;;;4839811;29;20469;-88
2022/01/03 03:42:06;;;;;;;35.13;4.03;;;9.20;99.90;;;;;;4840189;29;20049;-87
2022/01/03 03:44:31;;;;;;;32.33;4.35;;;9.20;99.90;;;;;;4840614;29;20058;-88
2022/01/03 03:46:57;;;;;;;32.88;4.68;;;9.20;99.90;;;;;;4839623;29;20050;-89
2022/01/03 03:49:22;;;;;;;40.30;4.85;;;9.20;99.90;;;;;;4840151;29;20092;-88
2022/01/03 03:51:48;;;;;;;25.88;4.43;;;9.20;99.90;;;;;;4839573;29;20050;-88
2022/01/03 03:54:13;;;;;;;25.02;3.75;;;9.20;99.90;;;;;;4840427;29;20544;-89
2022/01/03 03:56:39;;;;;;;30.60;4.18;;;9.30;99.90;;;;;;4837148;29;20432;-89
2022/01/03 03:59:05;;;;;;;30.85;4.00;;;9.30;99.90;;;;;;4839435;29;20528;-88
2022/01/03 04:01:30;;;;;;;26.00;3.83;;;9.30;99.90;;;;;;4841330;29;20048;-89
2022/01/03 04:03:56;;;;;;;44.10;6.75;;;9.30;99.90;;;;;;4842782;29;20048;-88
2022/01/03 04:06:21;;;;;;;38.22;4.93;;;9.30;99.90;;;;;;4842817;29;20084;-89
2022/01/03 04:08:47;;;;;;;31.40;4.45;;;9.30;99.90;;;;;;4843332;29;20515;-89
2022/01/03 04:11:13;;;;;;;35.15;4.93;;;9.30;99.90;;;;;;4843077;29;20132;-88
2022/01/03 04:13:39;;;;;;;37.10;5.15;;;9.30;99.90;;;;;;4828407;29;20094;-88
2022/01/03 04:16:06;;;;;;;24.40;3.90;;;9.30;99.90;;;;;;4843074;29;20057;-88
2022/01/03 04:18:32;;;;;;;39.35;5.03;;;9.40;99.90;;;;;;4843143;29;20102;-88
2022/01/03 04:20:57;;;;;;;30.35;4.40;;;9.50;99.90;;;;;;4842724;29;20045;-88
2022/01/03 04:23:23;;;;;;;32.65;5.50;;;9.50;99.90;;;;;;4843305;29;20048;-88
2022/01/03 04:25:50;;;;;;;31.13;4.60;;;9.50;99.90;;;;;;4842669;29;20057;-88
2022/01/03 04:28:16;;;;;;;35.95;4.57;;;9.50;99.90;;;;;;4843184;29;20049;-88
2022/01/03 04:30:42;;;;;;;39.40;6.25;;;9.60;99.90;;;;;;4840844;29;20060;-89
2022/01/03 04:33:07;;;;;;;38.60;5.40;;;9.60;99.90;;;;;;4842776;29;20145;-89
2022/01/03 04:35:33;;;;;;;35.83;4.28;;;9.60;99.90;;;;;;4842709;29;20038;-89
2022/01/03 04:37:58;;;;;;;29.23;3.65;;;9.60;99.90;;;;;;4842708;29;20132;-89
2022/01/03 04:40:24;;;;;;;32.15;5.10;;;9.60;99.90;;;;;;4843126;29;20469;-89
2022/01/03 04:42:51;;;;;;;35.85;4.82;;;9.60;99.90;;;;;;4842243;29;20140;-89
2022/01/03 04:45:17;;;;;;;39.80;5.93;;;9.60;99.90;;;;;;4842829;29;20523;-88
2022/01/03 04:47:43;;;;;;;31.92;4.82;;;9.70;99.90;;;;;;4842612;29;20085;-89
2022/01/03 04:50:09;;;;;;;39.45;5.03;;;9.70;99.90;;;;;;4842587;29;20547;-88
2022/01/03 04:52:35;;;;;;;28.80;4.25;;;9.60;99.90;;;;;;4842210;29;20045;-88
2022/01/03 04:55:01;;;;;;;22.95;3.80;;;9.70;99.90;;;;;;4842268;29;20124;-88
2022/01/03 04:57:27;;;;;;;38.95;4.93;;;9.70;99.90;;;;;;4842239;29;20052;-88
2022/01/03 04:59:53;;;;;;;37.60;5.47;;;9.60;99.90;;;;;;4842348;29;20050;-88
2022/01/03 05:02:19;;;;;;;36.63;5.40;;;9.60;99.90;;;;;;4844788;29;20511;-89
2022/01/03 05:04:44;;;;;;;40.60;4.75;;;9.60;99.90;;;;;;4843987;29;20041;-88
2022/01/03 05:07:11;;;;;;;25.20;3.55;;;9.60;99.90;;;;;;4842520;29;20053;-88
2022/01/03 05:09:37;;;;;;;30.10;4.15;;;9.70;99.90;;;;;;4842829;29;20185;-90
2022/01/03 05:12:03;;;;;;;39.53;5.28;;;9.70;99.90;;;;;;4841540;29;20121;-89
2022/01/03 05:14:28;;;;;;;38.83;4.65;;;9.70;99.90;;;;;;4826305;29;20049;-88
2022/01/03 05:16:54;;;;;;;38.63;5.50;;;9.70;99.90;;;;;;4844569;29;20053;-88
2022/01/03 05:19:20;;;;;;;38.05;5.25;;;9.60;99.90;;;;;;4841800;29;20049;-89
2022/01/03 05:21:48;;;;;;;37.40;5.32;;;9.60;99.90;;;;;;4841828;29;20128;-88
2022/01/03 05:24:14;;;;;;;38.65;5.20;;;9.60;99.90;;;;;;4842631;29;20450;-88
2022/01/03 05:26:40;;;;;;;37.63;6.10;;;9.70;99.90;;;;;;4841818;29;20094;-89
2022/01/03 05:29:05;;;;;;;30.40;4.82;;;9.70;99.90;;;;;;4842136;29;20037;-89
2022/01/03 05:31:31;;;;;;;32.33;5.22;;;9.60;99.90;;;;;;4842309;29;20041;-89
2022/01/03 05:33:57;;;;;;;47.92;5.35;;;9.70;99.90;;;;;;4841202;29;20052;-89
2022/01/03 05:36:22;;;;;;;42.42;5.70;;;9.70;99.90;;;;;;4841829;29;20045;-88
2022/01/03 05:38:48;;;;;;;36.53;5.50;;;9.60;99.90;;;;;;4841517;29;20128;-88
2022/01/03 05:41:14;;;;;;;41.17;5.60;;;9.60;99.90;;;;;;4842118;29;20037;-89
2022/01/03 05:43:40;;;;;;;41.60;5.63;;;9.60;99.90;;;;;;4852848;29;20596;-89
2022/01/03 05:46:05;;;;;;;45.83;5.10;;;9.50;99.90;;;;;;4841592;29;20412;-89
2022/01/03 05:48:31;;;;;;;46.35;5.82;;;9.50;99.90;;;;;;4841342;29;20120;-89
2022/01/03 05:50:57;;;;;;;44.58;5.55;;;9.40;99.90;;;;;;4841838;29;20061;-88
2022/01/03 05:53:22;;;;;;;39.17;5.40;;;9.40;99.90;;;;;;4841820;29;20088;-89
2022/01/03 05:55:49;;;;;;;36.90;5.32;;;9.40;99.90;;;;;;4841182;29;20521;-88
2022/01/03 05:58:15;;;;;;;36.63;5.60;;;9.30;99.90;;;;;;4841311;29;20048;-88
2022/01/03 06:00:41;;;;;;;47.55;6.78;;;9.30;99.90;;;;;;4841689;29;20050;-88
2022/01/03 06:03:07;;;;;;;49.08;6.75;;;9.30;99.90;;;;;;4840830;29;20583;-88
2022/01/03 06:08:02;;;;;;;40.78;7.13;;;9.40;99.90;;;;;;4841329;29;20060;-88
2022/01/03 06:10:28;;;;;;;43.55;6.13;;;9.40;99.90;;;;;;4841269;29;20053;-88
2022/01/03 06:12:54;;;;;;;41.40;5.20;;;9.50;99.90;;;;;;4841171;29;20132;-89
2022/01/03 06:15:23;;;;;;;35.80;4.97;;;9.50;99.90;;;;;;4830243;29;20069;-89
2022/01/03 06:17:50;;;;;;;35.70;5.57;;;9.40;99.90;;;;;;4837151;29;20053;-89
2022/01/03 06:20:16;;;;;;;43.60;5.93;;;9.30;99.90;;;;;;4840961;29;20053;-88
2022/01/03 06:22:42;;;;;;;38.58;5.82;;;9.30;99.90;;;;;;4840574;29;20070;-88
2022/01/03 06:25:09;;;;;;;49.35;5.82;;;9.30;99.90;;;;;;4840733;29;20037;-87
2022/01/03 06:27:36;;;;;;;46.45;5.68;;;9.30;99.90;;;;;;4841020;29;20092;-88
2022/01/03 06:30:03;;;;;;;45.75;5.18;;;9.20;99.90;;;;;;4840748;29;20041;-88
2022/01/03 06:32:29;;;;;;;45.25;5.45;;;9.20;99.90;;;;;;4840276;29;20046;-87
2022/01/03 06:34:54;;;;;;;36.13;4.90;;;9.10;99.90;;;;;;4840758;29;20112;-88
2022/01/03 06:37:20;;;;;;;35.15;5.30;;;9.00;99.90;;;;;;4840071;29;20119;-88
2022/01/03 06:39:46;;;;;;;35.25;5.30;;;9.10;99.90;;;;;;4840580;29;20046;-88
2022/01/03 06:42:11;;;;;;;33.20;5.15;;;9.10;99.90;;;;;;4840066;29;20056;-87
2022/01/03 06:44:37;;;;;;;35.33;5.47;;;9.00;99.90;;;;;;4840419;29;20053;-88
2022/01/03 06:47:03;;;;;;;35.35;5.40;;;9.00;99.90;;;;;;4847561;29;20046;-88
2022/01/03 06:49:28;;;;;;;41.17;4.82;;;9.00;99.90;;;;;;4840724;29;20072;-88
2022/01/03 06:51:54;;;;;;;39.53;5.35;;;9.10;99.90;;;;;;4840283;29;20049;-88
2022/01/03 06:54:19;;;;;;;40.28;6.47;;;9.10;99.90;;;;;;4841786;29;20041;-87
2022/01/03 06:56:45;;;;;;;38.10;5.10;;;9.10;99.90;;;;;;4840312;29;20088;-87
2022/01/03 06:59:10;;;;;;;37.38;5.60;;;9.10;99.90;;;;;;4840579;29;20041;-87
2022/01/03 07:01:37;;;;;;;31.48;4.88;;;9.10;99.90;;;;;;4837476;29;20050;-87
2022/01/03 07:04:03;;;;;;;32.22;5.10;;;9.10;99.90;;;;;;4838687;29;20042;-88
2022/01/03 07:06:28;;;;;;;45.95;5.97;;;9.20;99.90;;;;;;4839896;29;20052;-87
2022/01/03 07:08:54;;;;;;;56.97;5.22;;;9.20;99.90;;;;;;4840375;29;20475;-88
2022/01/03 07:11:20;;;;;;;57.95;5.65;;;9.10;99.90;;;;;;4840832;29;20046;-88
2022/01/03 07:13:52;;;;;;;34.83;5.32;;;9.10;99.90;;;;;;4840033;29;20458;-88
2022/01/03 07:19:05;;;;;;;;;;;9.10;99.90;;;;;;4855878;29;20045;-88
2022/01/03 07:21:32;;;;;;;39.58;5.13;;;9.00;99.90;;;;;;4839921;29;19924;-88
2022/01/03 07:23:58;;;;;;;54.22;6.78;;;8.90;99.90;;;;;;4840370;29;20038;-88
2022/01/03 07:26:25;;;;;;;44.13;6.68;;;9.00;99.90;;;;;;4840107;29;20046;-88
2022/01/03 07:28:51;;;;;;;42.20;5.22;;;9.00;99.90;;;;;;4844949;29;20759;-88
2022/01/03 07:31:17;;;;;;;42.17;5.75;;;9.00;99.90;;;;;;4840039;29;20053;-88
2022/01/03 07:33:43;;;;;;;36.15;5.30;;;9.10;99.90;;;;;;4839561;29;20527;-88
2022/01/03 07:36:09;;;;;;;41.53;5.45;;;9.00;99.90;;;;;;4839867;29;20044;-88
2022/01/03 07:38:35;;;;;;;43.78;5.20;;;9.10;99.90;;;;;;4838638;29;20501;-87
2022/01/03 07:41:03;;;;;;;50.40;5.68;;;9.00;99.90;;;;;;4842571;29;20061;-87
2022/01/03 07:43:29;;;;;;;48.75;6.53;;;9.10;99.90;;;;;;4843039;29;20061;-88
2022/01/03 07:45:54;;;;;;;37.15;5.40;;;9.20;99.90;;;;;;4842690;29;20066;-88
2022/01/03 07:48:20;;;;;;;55.25;6.47;;;9.20;99.90;;;;;;4825254;29;20046;-87
2022/01/03 07:50:46;;;;;;;41.30;4.95;;;9.20;99.90;;;;;;4843820;29;20173;-88
2022/01/03 07:53:11;;;;;;;41.13;5.05;;;9.20;99.90;;;;;;4840183;29;20057;-87
2022/01/03 07:55:37;;;;;;;45.30;5.65;;;9.30;99.90;;;;;;4827811;29;20057;-88
2022/01/03 07:58:03;;;;;;;49.42;5.88;;;9.30;99.90;;;;;;4842549;29;20136;-87
2022/01/03 08:00:28;;;;;;;41.00;5.97;;;9.30;99.90;;;;;;4843222;29;20132;-88
2022/01/03 08:02:54;;;;;;;35.80;6.22;;;9.20;99.90;;;;;;4839571;29;20133;-87
2022/01/03 08:05:20;;;;;;;45.10;5.75;;;9.30;99.90;;;;;;4842901;29;20125;-87
2022/01/03 08:07:45;;;;;;;45.85;6.00;;;9.30;99.90;;;;;;4833523;29;20053;-87
2022/01/03 08:10:12;;;;;;;38.17;6.55;;;9.30;99.90;;;;;;4845630;29;20041;-87
2022/01/03 08:12:39;;;;;;;41.00;5.65;;;9.40;99.90;;;;;;4825498;29;20427;-87
2022/01/03 08:15:09;;;;;;;50.75;5.85;;;9.40;99.90;;;;;;4834119;29;20254;-87
2022/01/03 08:17:34;;;;;;;49.97;7.60;;;9.40;99.90;;;;;;4826888;29;20052;-87
2022/01/03 08:20:00;;;;;;;41.03;5.20;;;9.40;99.90;;;;;;4842827;29;20037;-87
2022/01/03 08:22:26;;;;;;;43.13;6.30;;;9.50;99.90;;;;;;4842521;29;20629;-87
2022/01/03 08:24:52;;;;;;;49.85;6.68;;;9.40;99.90;;;;;;4842196;29;20634;-87
2022/01/03 08:27:18;;;;;;;40.22;4.90;;;9.50;99.90;;;;;;4841299;29;20163;-87
2022/01/03 08:29:43;;;;;;;35.00;5.50;;;9.50;99.90;;;;;;4855064;29;20031;-88
2022/01/03 08:32:09;;;;;;;46.45;5.70;;;9.60;99.90;;;;;;4827073;29;20041;-87
2022/01/03 08:34:35;;;;;;;39.45;5.60;;;9.60;99.90;;;;;;4837195;29;20073;-87
2022/01/03 08:37:00;;;;;;;49.70;6.60;;;9.60;99.90;;;;;;4832373;29;20101;-87
2022/01/03 08:39:27;;;;;;;43.38;5.93;;;9.70;99.90;;;;;;4833837;29;20046;-87
2022/01/03 08:41:52;;;;;;;39.55;5.53;;;9.70;99.90;;;;;;4841778;29;20072;-87
2022/01/03 08:44:18;;;;;;;37.65;5.22;;;9.70;99.90;;;;;;4829570;29;20057;-87
2022/01/03 08:46:46;;;;;;;33.95;4.90;;;9.70;99.90;;;;;;4841347;29;20121;-87
2022/01/03 08:49:15;;;;;;;43.65;5.85;;;9.80;99.90;;;;;;4836808;29;20041;-88
2022/01/03 08:51:42;;;;;;;32.85;6.03;;;9.80;99.90;;;;;;4825423;29;20054;-88
2022/01/03 08:54:08;;;;;;;39.65;6.10;;;9.80;99.90;;;;;;4838830;29;20077;-88
2022/01/03 08:56:33;;;;;;;40.92;6.30;;;9.90;99.90;;;;;;4841639;29;20053;-88
2022/01/03 08:58:59;;;;;;;46.35;5.80;;;9.70;99.90;;;;;;4841969;29;20408;-88
2022/01/03 09:01:25;;;;;;;43.70;7.05;;;9.80;99.90;;;;;;4844790;29;20548;-87
2022/01/03 09:03:50;;;;;;;38.58;5.68;;;9.80;99.90;;;;;;4827256;29;20524;-88
2022/01/03 09:06:20;;;;;;;42.22;6.00;;;9.90;99.90;;;;;;4826995;29;20053;-86
2022/01/03 09:08:46;;;;;;;34.67;5.22;;;9.90;99.90;;;;;;4843407;29;20049;-90
2022/01/03 09:11:13;;;;;;;36.67;5.93;;;9.90;99.90;;;;;;4841782;29;20136;-88
2022/01/03 09:13:40;;;;;;;34.78;5.22;;;9.90;99.90;;;;;;4828457;29;20049;-90
2022/01/03 09:16:06;;;;;;;33.33;6.10;;;10.00;99.90;;;;;;4826597;29;20049;-88
2022/01/03 09:18:36;;;;;;;42.83;5.80;;;10.00;99.90;;;;;;4826562;29;20795;-89
2022/01/03 09:21:02;;;;;;;44.80;6.93;;;10.00;99.90;;;;;;4837560;29;20051;-89
2022/01/03 09:23:32;;;;;;;36.25;5.65;;;10.00;99.90;;;;;;4860017;29;20045;-90
2022/01/03 09:28:52;;;;;;;44.33;6.75;;;10.10;99.90;;;;;;4847701;29;20049;-90
2022/01/03 09:31:38;;;;;;;30.92;5.03;;;10.20;99.90;;;;;;4827200;29;20053;-91
2022/01/03 09:34:07;;;;;;;33.08;4.82;;;10.20;99.90;;;;;;4869785;29;20138;-91
2022/01/03 09:36:34;;;;;;;34.97;5.50;;;10.10;99.90;;;;;;4855852;29;20052;-91
2022/01/03 09:39:00;;;;;;;40.17;5.43;;;10.10;99.90;;;;;;4856204;29;20052;-90
2022/01/03 09:41:28;;;;;;;46.28;5.90;;;10.20;99.90;;;;;;4862033;29;20045;-91
2022/01/03 09:43:59;;;;;;;36.95;4.60;;;10.10;99.90;;;;;;4844183;29;20113;-91
2022/01/03 09:46:27;;;;;;;39.65;5.65;;;10.20;99.90;;;;;;4827601;29;20527;-91
2022/01/03 09:48:55;;;;;;;37.50;5.32;;;10.20;99.90;;;;;;4844901;29;20080;-90
2022/01/03 09:51:23;;;;;;;32.60;5.13;;;10.20;99.90;;;;;;4855721;29;20052;-91
2022/01/03 09:53:50;;;;;;;32.05;5.03;;;10.20;99.90;;;;;;4868394;29;20045;-90
2022/01/03 09:56:17;;;;;;;41.05;5.88;;;10.20;99.90;;;;;;4841880;29;20053;-90
2022/01/03 09:58:42;;;;;;;29.20;5.00;;;10.20;99.90;;;;;;4822680;29;20049;-91
2022/01/03 10:01:09;;;;;;;44.97;6.43;;;10.10;99.90;;;;;;4840874;29;20045;-90
2022/01/03 10:03:35;;;;;;;34.83;6.03;;;10.10;99.90;;;;;;4841139;29;20041;-90
2022/01/03 10:06:01;;;;;;;39.13;5.25;;;10.10;99.90;;;;;;4841165;29;20045;-91
2022/01/03 10:08:27;;;;;;;43.55;5.55;;;10.20;99.90;;;;;;4825438;29;20060;-90
2022/01/03 10:10:53;;;;;;;43.03;5.68;;;10.10;99.90;;;;;;4842786;29;20140;-90
2022/01/03 10:13:19;;;;;;;34.13;5.15;;;10.10;99.90;;;;;;4840870;29;20045;-91
2022/01/03 10:15:46;;;;;;;35.25;4.63;;;10.20;99.90;;;;;;4842610;29;20042;-90
2022/01/03 10:18:17;;;;;;;38.92;5.32;;;10.10;99.90;;;;;;4839905;29;20531;-87
2022/01/03 10:20:43;;;;;;;36.15;5.95;;;10.20;99.90;;;;;;4839849;29;20053;-88
2022/01/03 10:23:11;;;;;;;35.92;5.57;;;10.10;99.90;;;;;;4855288;29;20140;-92
2022/01/03 10:25:37;;;;;;;40.40;5.60;;;10.10;99.90;;;;;;4840849;29;20101;-89
2022/01/03 10:28:04;;;;;;;36.53;5.38;;;10.20;99.90;;;;;;4840976;29;20037;-89
2022/01/03 10:30:36;;;;;;;39.40;5.18;;;10.20;99.90;;;;;;4840808;29;20042;-90
2022/01/03 10:33:03;;;;;;;31.80;5.60;;;10.20;99.90;;;;;;4847310;29;20092;-86
2022/01/03 10:35:39;;;;;;;37.70;4.70;;;10.20;99.90;;;;;;4840551;29;20076;-90
2022/01/03 10:38:05;;;;;;;37.92;5.40;;;10.20;99.90;;;;;;4839379;29;20492;-91
2022/01/03 10:40:31;;;;;;;36.17;5.63;;;10.20;99.90;;;;;;4825761;29;20046;-89
2022/01/03 10:43:23;;;;;;;40.70;6.05;;;10.20;99.90;;;;;;4833493;29;20061;-90
2022/01/03 10:45:50;;;;;;;44.65;5.38;;;10.20;99.90;;;;;;4825470;29;20065;-92
2022/01/03 10:48:28;;;;;;;34.05;5.82;;;10.20;99.90;;;;;;4839261;29;20077;-88
2022/01/03 10:50:56;;;;;;;38.47;6.10;;;10.20;99.90;;;;;;4840038;29;20088;-91
2022/01/03 10:53:39;;;;;;;39.30;5.35;;;10.30;99.90;;;;;;4839238;29;20093;-91
2022/01/03 10:56:33;;;;;;;41.55;5.03;;;10.30;99.90;;;;;;4837457;29;20046;-87
2022/01/03 10:59:30;;;;;;;46.90;6.00;;;10.20;99.90;;;;;;4855646;29;20082;-89
2022/01/03 11:02:00;;;;;;;41.90;5.50;;;10.30;99.90;;;;;;4831902;29;20042;-96
2022/01/03 11:04:30;;;;;;;40.33;5.45;;;10.10;99.90;;;;;;4853872;29;20053;-95
2022/01/03 11:10:43;;;;;;;45.47;5.10;;;10.10;99.90;;;;;;4851545;29;20132;-95
2022/01/03 11:13:14;;;;;;;41.47;5.15;;;10.10;99.90;;;;;;4852809;29;20064;-96
2022/01/03 11:15:57;;;;;;;39.45;5.07;;;10.10;99.90;;;;;;4864879;29;20132;-96
2022/01/03 11:18:24;;;;;;;42.00;5.88;;;10.20;99.90;;;;;;4867937;29;20044;-96
2022/01/03 11:21:09;;;;;;;39.40;6.18;;;10.20;99.90;;;;;;4866625;29;20025;-96
2022/01/03 11:23:36;;;;;;;33.65;6.22;;;10.20;99.90;;;;;;4867515;29;20037;-96
2022/01/03 11:26:10;;;;;;;36.60;4.80;;;10.20;99.90;;;;;;4865535;29;20057;-96
2022/01/03 11:28:37;;;;;;;38.58;5.47;;;10.20;99.90;;;;;;4867090;29;20053;-96
2022/01/03 11:31:03;;;;;;;28.05;5.15;;;10.20;99.90;;;;;;4849956;29;20045;-96
2022/01/03 11:33:29;;;;;;;35.03;5.03;;;10.20;99.90;;;;;;4859098;29;20034;-96
2022/01/03 11:35:57;;;;;;;42.53;5.60;;;10.20;99.90;;;;;;4863222;29;20049;-90
2022/01/03 11:38:23;;;;;;;34.60;6.15;;;10.20;99.90;;;;;;4866370;29;20026;-92
2022/01/03 11:40:50;;;;;;;28.27;5.78;;;10.30;99.90;;;;;;4851345;29;20030;-91
2022/01/03 11:43:18;;;;;;;32.08;5.45;;;10.30;99.90;;;;;;4850750;29;20062;-89
2022/01/03 11:45:44;;;;;;;30.92;4.72;;;10.20;99.90;;;;;;4834657;29;20034;-92
2022/01/03 11:48:11;;;;;;;31.67;4.60;;;10.30;99.90;;;;;;4839341;29;20061;-91
2022/01/03 11:50:38;;;;;;;32.75;4.88;;;10.70;99.90;;;;;;4837315;29;20139;-91
2022/01/03 11:53:06;;;;;;;32.88;4.60;;;10.90;99.90;;;;;;4854733;29;20049;-91
2022/01/03 11:55:34;;;;;;;34.35;5.28;;;11.00;99.90;;;;;;4839952;29;20041;-90
2022/01/03 12:06:02;;;;;;;33.50;5.43;;;11.10;99.90;;;;;;4840012;29;20052;-90
2022/01/03 12:08:33;;;;;;;40.63;5.50;;;11.10;99.90;;;;;;4824701;29;20518;-91
2022/01/03 12:11:01;;;;;;;34.00;5.45;;;11.20;99.90;;;;;;4826989;29;20527;-90
2022/01/03 12:13:47;;;;;;;28.70;4.57;;;11.20;99.90;;;;;;4839514;29;20136;-91
2022/01/03 12:16:14;;;;;;;37.97;6.35;;;11.20;99.90;;;;;;4839756;29;20042;-91
2022/01/03 12:18:56;;;;;;;49.22;5.95;;;11.20;99.90;;;;;;4839901;29;20714;-90
2022/01/03 12:21:46;;;;;;;34.90;4.65;;;11.20;99.90;;;;;;4840328;29;20046;-90
2022/01/03 12:24:27;;;;;;;29.35;4.05;;;11.20;99.90;;;;;;4841358;29;20109;-91
2022/01/03 12:27:14;;;;;;;38.47;5.35;;;11.30;99.90;;;;;;4843552;29;20053;-91
2022/01/03 12:29:55;;;;;;;31.83;4.35;;;11.30;99.90;;;;;;4843591;29;20056;-91
2022/01/03 12:32:37;;;;;;;38.33;5.25;;;11.30;99.90;;;;;;4858516;29;20393;-91
2022/01/03 12:35:18;;;;;;;33.35;6.30;;;11.20;99.90;;;;;;4842947;29;20489;-91
2022/01/03 12:37:47;;;;;;;32.47;4.70;;;11.30;99.90;;;;;;4843116;29;20132;-91
2022/01/03 12:40:31;;;;;;;50.17;6.50;;;11.30;99.90;;;;;;4843655;29;20474;-90
2022/01/03 12:43:10;;;;;;;30.45;5.03;;;11.30;99.90;;;;;;4842644;29;20057;-91
2022/01/03 12:45:44;;;;;;;37.20;5.15;;;11.40;99.90;;;;;;4843205;29;20050;-92
2022/01/03 12:48:10;;;;;;;39.92;4.72;;;11.30;99.90;;;;;;4842617;29;20053;-90
2022/01/03 12:50:52;;;;;;;40.58;5.57;;;11.20;99.90;;;;;;4843344;29;20056;-91
2022/01/03 12:53:26;;;;;;;38.35;4.78;;;11.20;99.90;;;;;;4842902;29;20365;-91
2022/01/03 12:55:53;;;;;;;37.13;5.35;;;11.20;99.90;;;;;;4843138;29;20050;-90
2022/01/03 12:58:19;;;;;;;35.13;5.18;;;11.20;99.90;;;;;;4842816;29;20411;-91
2022/01/03 13:00:50;;;;;;;44.63;6.15;;;11.20;99.90;;;;;;4842853;29;20148;-91
2022/01/03 13:03:50;;;;;;;35.67;5.18;;;11.10;99.90;;;;;;4842327;29;20064;-90
2022/01/03 13:06:18;;;;;;;38.00;5.10;;;11.00;99.90;;;;;;4838125;29;20061;-90
2022/01/03 13:09:00;;;;;;;41.63;5.63;;;11.10;99.90;;;;;;4842756;29;20054;-91
2022/01/03 13:11:37;;;;;;;38.60;6.15;;;11.10;99.90;;;;;;4858517;29;20189;-90